Impacts TAF Board
For situational awareness. Not to be used for flight planning purposes.
IDs:

KELP - El Paso Intl, TX, US

Issued at 1720 UTC 08 Aug 2020
Updated at 2117 UTC 08 Aug 2020
Potential Impact None Slight Moderate High
Time2051Z 08/22Z 08/23Z 09/00Z 09/01Z 09/02Z 09/03Z 09/04Z 09/05Z 09/06Z 09/07Z 09/08Z 09/09Z 09/10Z>>
Type OBS PRVL PRVL PRVL PRVL PRVL PRVL PRVL PRVL PRVL PRVL PRVL PRVL PRVL
VIS 10 >6 >6 >6 >6 >6 >6 >6 >6 >6 >6 >6 >6 >6
CIG -- -- -- -- -- -- -- -- -- -- -- -- -- --
Cover FEW FEW FEW SCT SCT SCT SCT SCT SCT SCT SCT SCT SCT SCT
FltCat VFR VFR VFR VFR VFR VFR VFR VFR VFR VFR VFR VFR VFR VFR
WX -- -- -- -- -- -- -- -- -- -- -- -- -- --
WDir 80 VRB VRB 100 100 100 100 100 100 100 100 100 100 100
WSpd 4 3 3 8 8 8 8 8 8 8 8 8 8 8
WGst -- -- -- -- -- -- -- -- -- -- -- -- -- --
Raw TAF
KELP 081720Z 0818/0918 VRB03KT P6SM FEW140 FEW220
  FM090000 10008KT P6SM SCT120


Raw METAR
KELP 082051Z COR 08004KT 10SM FEW110 FEW220 36/10 A3008 RMK AO2 SLP100 TCU DSNT NE AND S T03610100 58019
KELP 081951Z 00000KT 10SM FEW110 FEW220 35/10 A3010 RMK AO2 SLP110 CB DSNT NE T03500100
KELP 081851Z 16006KT 10SM FEW110 FEW220 34/11 A3012 RMK AO2 SLP116 TCU DSNT NE T03390106

METAR Board
Radar Display
Forecast Discussion
For situational awareness. Not to be used for flight planning purposes.